Time;durP1;ratioP1;P1;durP2;ratioP2;P2;SDS_P1;SDS_P2;PMS_P1;PMS_P2;Temp;Humidity;BMP_temperature;BMP_pressure;BME280_temperature;BME280_humidity;BME280_pressure;Samples;Min_cycle;Max_cycle;Signal;HPM_P1;HPM_P2
2021/08/28 00:02:23;;;;;;;22.17;19.10;;;;;;;14.36;68.13;99965.38;10446918;28;20167;-64
2021/08/28 00:07:25;;;;;;;34.03;24.92;;;;;;;14.37;68.01;99970.50;10437402;28;20466;-64
2021/08/28 00:12:27;;;;;;;29.77;23.92;;;;;;;14.45;67.78;99965.50;10425577;28;20815;-64
2021/08/28 00:17:33;;;;;;;28.77;22.67;;;;;;;14.51;67.83;99957.19;10433843;28;20102;-65
2021/08/28 00:22:36;;;;;;;25.17;19.35;;;;;;;14.59;67.45;99962.72;10445184;28;20045;-65
2021/08/28 00:27:38;;;;;;;35.97;25.95;;;;;;;14.75;67.62;99958.94;10445193;28;20128;-64
2021/08/28 00:32:41;;;;;;;40.22;29.23;;;;;;;14.84;67.48;99960.88;10431444;28;20049;-65
2021/08/28 00:37:42;;;;;;;26.73;19.83;;;;;;;14.82;67.04;99960.97;10421825;28;20592;-65
2021/08/28 00:42:46;;;;;;;30.38;22.30;;;;;;;14.70;67.24;99955.78;10438451;28;20116;-65
2021/08/28 00:48:08;;;;;;;33.83;25.52;;;;;;;14.50;67.70;99960.78;10419538;28;20076;-65
2021/08/28 00:53:13;;;;;;;32.90;24.13;;;;;;;14.46;67.88;99959.31;10446177;28;20509;-65
2021/08/28 00:58:15;;;;;;;32.53;25.58;;;;;;;14.48;67.86;99965.31;10442377;28;20139;-65
2021/08/28 01:03:25;;;;;;;31.15;22.88;;;;;;;14.43;67.67;99951.63;10435147;28;20141;-65
2021/08/28 01:08:40;;;;;;;25.05;19.00;;;;;;;14.30;68.08;99948.25;10444570;28;20063;-65
2021/08/28 01:13:45;;;;;;;45.13;28.52;;;;;;;14.29;67.75;99938.69;10437799;28;20134;-65
2021/08/28 01:18:52;;;;;;;46.90;31.00;;;;;;;14.22;67.60;99941.88;10433538;28;20181;-65
2021/08/28 01:23:57;;;;;;;38.78;27.02;;;;;;;14.20;67.48;99949.91;10444999;28;20076;-65
2021/08/28 01:29:16;;;;;;;22.38;17.73;;;;;;;14.08;67.82;99945.56;10443319;28;20076;-65
2021/08/28 01:34:18;;;;;;;30.35;24.58;;;;;;;13.99;68.56;99943.59;10441624;28;20481;-65
2021/08/28 01:39:20;;;;;;;29.20;21.63;;;;;;;13.87;68.64;99947.13;10444915;28;20076;-66
2021/08/28 01:44:23;;;;;;;33.22;24.58;;;;;;;13.81;68.64;99954.59;10458934;28;20041;-65
2021/08/28 01:49:25;;;;;;;31.40;23.73;;;;;;;13.78;68.70;99945.13;10439717;28;20447;-65
2021/08/28 01:54:28;;;;;;;21.73;18.50;;;;;;;13.78;68.43;99958.28;10442665;28;20129;-65
2021/08/28 01:59:30;;;;;;;32.40;23.17;;;;;;;13.82;68.73;99972.06;10443749;28;20140;-65
2021/08/28 02:04:35;;;;;;;34.22;25.75;;;;;;;13.79;68.50;99959.97;10448209;28;20084;-65
2021/08/28 02:09:51;;;;;;;31.52;24.88;;;;;;;13.73;68.43;99952.53;10450566;28;20135;-65
2021/08/28 02:14:59;;;;;;;39.92;26.92;;;;;;;13.69;68.61;99959.81;10426714;28;20132;-65
2021/08/28 02:20:04;;;;;;;55.15;31.05;;;;;;;13.63;68.64;99957.63;10447449;28;20099;-65
2021/08/28 02:25:15;;;;;;;38.15;26.23;;;;;;;13.65;69.11;99963.63;10450673;28;20631;-65
2021/08/28 02:30:19;;;;;;;31.23;23.05;;;;;;;13.72;68.73;99967.47;10451643;28;20120;-65
2021/08/28 02:35:21;;;;;;;37.15;25.63;;;;;;;13.78;68.44;99964.38;10449575;28;20516;-65
2021/08/28 02:40:26;;;;;;;28.17;23.73;;;;;;;13.86;68.33;99974.34;10450868;28;20145;-65
2021/08/28 02:45:28;;;;;;;27.85;22.08;;;;;;;13.93;68.07;99977.38;10427205;28;20065;-65
2021/08/28 02:50:32;;;;;;;42.63;28.00;;;;;;;14.05;67.94;99976.47;10435929;28;20075;-65
2021/08/28 02:55:36;;;;;;;22.30;18.40;;;;;;;14.06;67.75;99976.38;10449718;28;20084;-65
2021/08/28 03:00:39;;;;;;;61.45;32.08;;;;;;;14.05;67.82;99969.44;10450689;28;20135;-66
2021/08/28 03:05:44;;;;;;;31.77;23.98;;;;;;;13.94;68.21;99969.41;10437211;28;20045;-66
2021/08/28 03:10:49;;;;;;;28.20;23.23;;;;;;;13.94;68.11;99958.88;10447219;28;20048;-65
2021/08/28 03:15:53;;;;;;;28.25;19.85;;;;;;;13.91;67.95;99958.25;10449987;28;20045;-65
2021/08/28 03:20:57;;;;;;;35.53;25.17;;;;;;;13.90;67.91;99961.84;10450634;28;20059;-65
2021/08/28 03:26:00;;;;;;;31.45;24.08;;;;;;;13.90;67.99;99962.69;10450469;28;20049;-65
2021/08/28 03:31:02;;;;;;;45.78;29.65;;;;;;;13.88;67.71;99953.22;10421299;28;20131;-65
2021/08/28 03:36:05;;;;;;;35.90;24.83;;;;;;;13.79;68.00;99952.09;10448728;28;20128;-65
2021/08/28 03:41:08;;;;;;;44.20;28.85;;;;;;;13.77;68.06;99961.88;10450376;28;20476;-66
2021/08/28 03:46:10;;;;;;;42.22;25.40;;;;;;;13.71;68.29;99962.31;10444710;28;20135;-65
2021/08/28 03:51:12;;;;;;;34.38;25.30;;;;;;;13.60;68.87;99964.88;10449273;28;20080;-66
2021/08/28 03:56:14;;;;;;;37.78;26.70;;;;;;;13.48;68.92;99979.72;10429024;28;20087;-66
2021/08/28 04:01:16;;;;;;;32.05;21.77;;;;;;;13.45;69.05;99982.59;10448021;28;20608;-66
2021/08/28 04:06:18;;;;;;;36.42;23.52;;;;;;;13.50;69.13;99987.50;10449264;28;20478;-66
2021/08/28 04:11:20;;;;;;;31.48;22.13;;;;;;;13.52;69.17;99989.06;10440450;28;20064;-66
2021/08/28 04:16:22;;;;;;;24.92;21.25;;;;;;;13.47;69.23;99987.72;10430843;28;20139;-65
2021/08/28 04:21:23;;;;;;;28.98;20.85;;;;;;;13.57;68.97;99980.88;10447601;28;20136;-66
2021/08/28 04:26:25;;;;;;;24.08;18.85;;;;;;;13.60;68.85;99973.59;10442568;28;20075;-65
2021/08/28 04:31:27;;;;;;;17.80;12.55;;;;;;;13.58;69.05;99969.41;10447668;28;20594;-64
2021/08/28 04:36:29;;;;;;;18.45;12.18;;;;;;;13.59;69.16;99978.97;10446795;28;20080;-64
2021/08/28 04:41:31;;;;;;;16.48;10.60;;;;;;;13.69;68.77;99972.09;10446926;28;20091;-64
2021/08/28 04:46:33;;;;;;;16.88;11.18;;;;;;;13.77;68.66;99972.41;10446848;28;20516;-64
2021/08/28 04:51:34;;;;;;;17.30;11.05;;;;;;;13.77;68.65;99970.63;10446978;28;20049;-66
2021/08/28 04:56:36;;;;;;;12.48;9.40;;;;;;;13.72;69.00;99975.34;10445371;28;20080;-66
2021/08/28 05:01:38;;;;;;;19.00;11.63;;;;;;;13.85;68.80;99980.56;10442394;28;20077;-65
2021/08/28 05:06:40;;;;;;;21.52;11.82;;;;;;;13.96;68.44;99977.16;10428999;28;20051;-65
2021/08/28 05:11:42;;;;;;;16.40;10.52;;;;;;;14.01;68.22;99985.53;10461095;28;20072;-65
2021/08/28 05:16:44;;;;;;;17.98;11.13;;;;;;;14.07;68.32;99990.34;10446281;28;20053;-66
2021/08/28 05:21:46;;;;;;;21.52;12.27;;;;;;;14.14;68.16;99992.44;10432089;28;20088;-66
2021/08/28 05:26:48;;;;;;;18.63;11.43;;;;;;;14.27;67.68;99994.97;10443909;28;20159;-66
2021/08/28 05:31:49;;;;;;;21.15;11.25;;;;;;;14.37;67.47;99996.00;10460162;28;20076;-66
2021/08/28 05:36:51;;;;;;;20.42;12.40;;;;;;;14.47;67.56;99986.47;10430217;28;20114;-66
2021/08/28 05:41:53;;;;;;;19.77;12.13;;;;;;;14.48;67.50;99996.03;10445049;28;20140;-66
2021/08/28 05:46:55;;;;;;;20.60;12.65;;;;;;;14.49;67.27;99995.13;10438860;28;20057;-66
2021/08/28 05:51:56;;;;;;;22.40;13.15;;;;;;;14.48;67.61;99996.88;10434942;28;20044;-66
2021/08/28 05:56:58;;;;;;;21.75;12.68;;;;;;;14.55;67.48;100002.56;10418450;28;20076;-66
2021/08/28 06:02:00;;;;;;;17.55;10.93;;;;;;;14.59;67.16;100001.38;10444031;28;20734;-66
2021/08/28 06:07:02;;;;;;;23.55;12.48;;;;;;;14.62;67.51;100005.53;10440864;28;20079;-66
2021/08/28 06:12:04;;;;;;;15.32;10.98;;;;;;;14.66;67.37;100005.22;10418334;28;20057;-67
2021/08/28 06:17:06;;;;;;;24.80;12.93;;;;;;;14.70;67.30;100008.44;10431712;28;20168;-65
2021/08/28 06:22:08;;;;;;;17.08;11.13;;;;;;;14.74;67.33;100002.84;10427951;28;20053;-66
2021/08/28 06:27:10;;;;;;;29.38;14.07;;;;;;;14.81;67.25;99990.06;10436149;28;20045;-65
2021/08/28 06:32:12;;;;;;;20.45;13.82;;;;;;;14.98;67.08;99986.97;10442764;28;20510;-65
2021/08/28 06:37:13;;;;;;;19.15;11.57;;;;;;;15.04;66.47;99995.22;10441297;28;20132;-66
2021/08/28 06:42:15;;;;;;;21.23;12.65;;;;;;;15.20;66.74;99984.34;10442445;28;20494;-66
2021/08/28 06:47:17;;;;;;;15.65;10.55;;;;;;;15.27;66.17;99989.03;10443866;28;20136;-65
2021/08/28 06:52:19;;;;;;;21.95;12.98;;;;;;;15.52;66.10;99990.59;10435281;28;20458;-65
2021/08/28 06:57:21;;;;;;;20.65;12.50;;;;;;;15.64;66.09;99989.63;10442157;28;20053;-65
2021/08/28 07:02:23;;;;;;;23.50;13.32;;;;;;;15.77;65.92;99986.84;10440306;28;20092;-66
2021/08/28 07:07:25;;;;;;;18.50;12.63;;;;;;;15.94;65.55;99987.16;10434185;28;20140;-66
2021/08/28 07:12:27;;;;;;;18.17;12.48;;;;;;;16.16;65.28;99976.53;10439313;28;20456;-66
2021/08/28 07:17:29;;;;;;;13.82;10.45;;;;;;;16.16;64.95;99978.34;10436712;28;20132;-66
2021/08/28 07:22:30;;;;;;;14.20;10.63;;;;;;;16.25;64.75;99980.22;10436849;28;20053;-66
2021/08/28 07:27:32;;;;;;;16.02;10.25;;;;;;;16.37;64.73;99979.19;10419058;28;20916;-65
2021/08/28 07:32:35;;;;;;;14.23;10.60;;;;;;;16.59;63.88;99976.47;10417580;28;20049;-66
2021/08/28 07:37:37;;;;;;;13.65;9.45;;;;;;;16.96;63.11;99979.50;10426651;28;20513;-67
2021/08/28 07:42:39;;;;;;;13.55;9.30;;;;;;;17.18;62.94;99976.69;10428200;28;20504;-66
2021/08/28 07:47:40;;;;;;;17.20;13.65;;;;;;;17.26;62.37;99968.09;10426487;28;20119;-66
2021/08/28 07:52:43;;;;;;;15.88;11.88;;;;;;;17.39;61.94;99969.56;10424748;28;20069;-66
2021/08/28 07:57:44;;;;;;;19.75;12.73;;;;;;;17.22;61.91;99964.88;10431633;28;20521;-66
2021/08/28 08:02:46;;;;;;;17.45;13.43;;;;;;;17.17;62.45;99974.19;10437876;28;20135;-66
2021/08/28 08:07:48;;;;;;;17.52;11.75;;;;;;;17.33;61.62;99975.41;10448487;28;20080;-66
2021/08/28 08:12:50;;;;;;;12.48;10.27;;;;;;;17.37;61.19;99987.38;10426055;28;20080;-66
2021/08/28 08:17:52;;;;;;;12.75;9.73;;;;;;;17.22;60.65;99987.84;10447393;28;20454;-66
2021/08/28 08:22:54;;;;;;;12.60;9.98;;;;;;;17.33;61.10;99983.31;10446312;28;20143;-66
2021/08/28 08:27:56;;;;;;;12.27;9.60;;;;;;;17.36;61.05;99985.72;10447653;28;20084;-65
2021/08/28 08:32:58;;;;;;;11.93;9.77;;;;;;;17.15;61.98;99987.53;10422556;28;20065;-68
2021/08/28 08:38:02;;;;;;;15.07;10.52;;;;;;;17.30;61.74;99995.94;10409637;28;20050;-66
2021/08/28 08:43:05;;;;;;;11.82;8.07;;;;;;;17.40;61.02;99991.56;10439069;28;20088;-66
2021/08/28 08:48:07;;;;;;;10.63;8.13;;;;;;;17.65;59.84;99988.44;10443147;28;20132;-65
2021/08/28 08:53:11;;;;;;;13.02;7.85;;;;;;;17.74;59.84;99979.69;10447866;28;20091;-65
2021/08/28 08:58:14;;;;;;;7.30;4.97;;;;;;;17.69;58.13;99974.81;10447270;28;20101;-66
2021/08/28 09:03:16;;;;;;;5.28;4.18;;;;;;;17.68;58.18;99990.81;10431696;28;20130;-66
2021/08/28 09:08:18;;;;;;;4.70;3.67;;;;;;;17.79;57.78;99978.31;10445420;28;20545;-65
2021/08/28 09:13:23;;;;;;;3.70;2.80;;;;;;;17.94;57.17;99985.84;10425435;28;20084;-66
2021/08/28 09:18:24;;;;;;;4.45;3.25;;;;;;;17.96;56.70;99984.75;10420896;28;20056;-66
2021/08/28 09:23:26;;;;;;;4.18;3.03;;;;;;;18.31;56.07;99979.81;10441215;28;20095;-65
2021/08/28 09:28:33;;;;;;;3.95;2.95;;;;;;;18.78;55.14;99971.94;10444777;28;20087;-65
2021/08/28 09:33:35;;;;;;;4.68;2.72;;;;;;;19.25;53.46;99968.34;10413814;28;20111;-61
2021/08/28 09:38:39;;;;;;;4.72;2.45;;;;;;;19.52;51.78;99971.03;10443440;28;20083;-63
2021/08/28 09:43:41;;;;;;;3.72;2.35;;;;;;;19.54;50.17;99970.88;10447118;28;20064;-63
2021/08/28 09:48:59;;;;;;;4.35;3.30;;;;;;;19.58;50.59;99973.09;10454092;28;20076;-62
2021/08/28 09:54:01;;;;;;;3.83;2.85;;;;;;;19.80;50.54;99963.88;10409268;28;20068;-62
2021/08/28 09:59:21;;;;;;;5.10;2.80;;;;;;;19.84;50.88;99968.78;10431340;28;20148;-62
2021/08/28 10:04:23;;;;;;;4.30;2.72;;;;;;;20.31;49.51;99972.06;10432979;28;20051;-62
2021/08/28 10:09:27;;;;;;;3.17;2.38;;;;;;;20.44;50.00;99967.16;10443163;28;20060;-62
2021/08/28 10:14:29;;;;;;;2.60;1.95;;;;;;;21.18;48.26;99966.72;10444689;28;20497;-62
2021/08/28 10:19:31;;;;;;;3.03;2.00;;;;;;;21.16;46.31;99968.69;10439958;28;20080;-62
2021/08/28 10:24:33;;;;;;;3.88;2.03;;;;;;;20.21;46.65;99963.34;10445258;28;20098;-62
2021/08/28 10:29:36;;;;;;;3.20;1.88;;;;;;;20.28;47.77;99967.03;10427794;28;20125;-62
2021/08/28 10:34:38;;;;;;;3.47;1.77;;;;;;;20.14;47.96;99959.59;10441149;28;20091;-63
2021/08/28 10:39:42;;;;;;;2.60;1.88;;;;;;;19.91;49.10;99969.00;10449916;28;20135;-62
2021/08/28 10:44:43;;;;;;;3.13;1.95;;;;;;;19.17;48.96;99979.69;10427581;28;20088;-62
2021/08/28 10:49:50;;;;;;;3.08;1.95;;;;;;;18.67;50.44;99994.13;10450318;28;20048;-62
2021/08/28 10:54:54;;;;;;;3.05;2.00;;;;;;;18.31;51.10;99986.91;10464926;28;20476;-62
2021/08/28 11:00:00;;;;;;;2.92;1.92;;;;;;;18.10;50.56;99991.44;10447808;28;20140;-62
2021/08/28 11:05:17;;;;;;;3.30;2.08;;;;;;;18.11;51.69;99988.69;10449238;28;20102;-62
2021/08/28 11:10:21;;;;;;;4.63;1.70;;;;;;;18.48;51.02;99975.63;10448380;28;20088;-62
2021/08/28 11:15:32;;;;;;;3.38;1.58;;;;;;;18.75;50.80;99978.34;10448824;28;20122;-62
2021/08/28 11:20:43;;;;;;;4.72;1.83;;;;;;;18.81;50.43;99983.09;10447319;28;20140;-62
2021/08/28 11:25:48;;;;;;;2.83;1.80;;;;;;;18.58;49.71;99984.41;10449921;28;20399;-63
2021/08/28 11:30:49;;;;;;;4.20;1.80;;;;;;;18.29;50.27;99992.34;10447530;28;20080;-62
2021/08/28 11:36:15;;;;;;;3.00;1.63;;;;;;;18.15;50.34;99987.44;10426656;28;20042;-62
2021/08/28 11:41:20;;;;;;;3.55;1.50;;;;;;;18.16;50.64;99982.94;10428359;28;20084;-62
2021/08/28 11:46:28;;;;;;;2.28;1.60;;;;;;;18.22;50.38;99998.34;10460013;28;20371;-62
2021/08/28 11:51:31;;;;;;;2.33;1.60;;;;;;;18.19;50.50;100007.41;10426378;28;20053;-62
2021/08/28 11:56:33;;;;;;;2.35;1.70;;;;;;;18.25;50.92;100003.34;10428061;28;20120;-62
2021/08/28 12:01:44;;;;;;;3.38;1.80;;;;;;;18.16;51.33;100001.47;10430355;28;20060;-63
2021/08/28 12:06:52;;;;;;;2.42;1.63;;;;;;;17.65;51.26;100010.44;10428799;28;20045;-61
2021/08/28 12:11:56;;;;;;;3.35;1.80;;;;;;;17.55;53.13;100017.50;10442343;28;20073;-62
2021/08/28 12:16:59;;;;;;;3.10;1.77;;;;;;;17.54;52.79;100026.44;10446582;28;20478;-62
2021/08/28 12:22:08;;;;;;;3.25;2.00;;;;;;;17.23;53.82;100031.78;10445402;28;20078;-62
2021/08/28 12:27:12;;;;;;;3.73;2.40;;;;;;;17.20;56.56;100032.88;10434309;28;20048;-62
2021/08/28 12:32:19;;;;;;;4.85;2.97;;;;;;;17.11;57.58;100038.97;10446698;28;20072;-62
2021/08/28 12:37:24;;;;;;;6.32;3.92;;;;;;;17.19;57.66;100039.16;10448502;28;20076;-62
2021/08/28 12:42:31;;;;;;;6.15;3.90;;;;;;;17.11;58.39;100040.78;10443508;28;20149;-62
2021/08/28 12:47:38;;;;;;;5.53;2.70;;;;;;;17.15;59.04;100050.13;10446618;28;20085;-63
2021/08/28 12:52:42;;;;;;;4.68;3.00;;;;;;;17.22;58.11;100044.16;10446961;28;20076;-63
2021/08/28 12:57:44;;;;;;;6.55;3.90;;;;;;;17.56;58.50;100053.56;10447783;28;20087;-62
2021/08/28 13:02:48;;;;;;;5.40;3.60;;;;;;;17.95;58.88;100049.25;10438171;28;20085;-63
2021/08/28 13:07:51;;;;;;;4.25;2.90;;;;;;;18.14;58.39;100053.72;10427933;28;20061;-62
2021/08/28 13:13:04;;;;;;;4.32;3.33;;;;;;;17.89;58.99;100062.19;10437799;28;20464;-62
2021/08/28 13:18:17;;;;;;;6.30;3.30;;;;;;;17.81;58.59;100047.78;10440007;28;20840;-62
2021/08/28 13:23:26;;;;;;;5.55;3.13;;;;;;;18.11;57.77;100049.56;10445340;28;20049;-61
2021/08/28 13:28:31;;;;;;;4.68;3.13;;;;;;;17.92;58.36;100053.94;10445889;28;20178;-62
2021/08/28 13:33:32;;;;;;;5.80;3.58;;;;;;;17.58;58.00;100064.00;10444817;28;20131;-62
2021/08/28 13:38:37;;;;;;;4.88;3.10;;;;;;;17.43;59.72;100062.69;10428696;28;20132;-62
2021/08/28 13:43:39;;;;;;;4.72;2.60;;;;;;;17.58;58.08;100078.09;10443970;28;20136;-62
2021/08/28 13:48:41;;;;;;;3.58;2.38;;;;;;;17.79;57.58;100068.25;10423557;28;20128;-63
2021/08/28 13:53:42;;;;;;;4.80;2.30;;;;;;;18.01;55.74;100063.75;10443615;28;20128;-62
2021/08/28 13:58:45;;;;;;;4.20;2.10;;;;;;;18.13;56.34;100060.00;10440135;28;20511;-62
2021/08/28 14:03:47;;;;;;;5.45;1.90;;;;;;;18.53;54.32;100043.09;10439901;28;20152;-62
2021/08/28 14:08:49;;;;;;;3.80;1.95;;;;;;;18.63;52.83;100037.78;10435591;28;20077;-62
2021/08/28 14:13:50;;;;;;;3.63;1.98;;;;;;;18.43;54.74;100025.50;10443734;28;20087;-63
2021/08/28 14:18:52;;;;;;;4.55;2.70;;;;;;;18.30;55.45;100025.78;10441442;28;20048;-61
2021/08/28 14:23:55;;;;;;;3.83;2.00;;;;;;;18.40;55.99;100012.56;10425132;28;20053;-61
2021/08/28 14:28:57;;;;;;;2.60;1.80;;;;;;;18.22;55.40;100006.28;10437429;28;20499;-61
2021/08/28 14:33:59;;;;;;;3.78;2.00;;;;;;;18.15;55.94;100003.31;10442609;28;20127;-62
2021/08/28 14:39:04;;;;;;;3.28;2.00;;;;;;;18.31;56.01;100014.22;10441907;28;20080;-62
2021/08/28 14:44:08;;;;;;;2.38;1.63;;;;;;;18.39;55.11;100014.38;10440237;28;20087;-62
2021/08/28 14:49:11;;;;;;;3.47;1.75;;;;;;;18.54;54.16;100014.78;10430182;28;20132;-62
2021/08/28 14:54:13;;;;;;;2.00;1.40;;;;;;;19.03;52.73;100019.88;10434171;28;20132;-62
2021/08/28 14:59:15;;;;;;;3.33;1.65;;;;;;;19.33;52.06;100011.72;10440488;28;20128;-62
2021/08/28 15:04:17;;;;;;;2.03;1.30;;;;;;;19.24;52.06;100017.88;10442636;28;20092;-62
2021/08/28 15:09:19;;;;;;;3.58;1.60;;;;;;;19.37;52.23;100014.91;10444847;28;20053;-62
2021/08/28 15:14:20;;;;;;;3.28;1.70;;;;;;;19.43;51.98;100009.03;10434346;28;20083;-62
2021/08/28 15:19:22;;;;;;;3.40;1.60;;;;;;;19.37;51.80;100010.47;10422674;28;20092;-62
2021/08/28 15:24:24;;;;;;;3.03;1.50;;;;;;;19.38;52.12;100004.16;10438386;28;20087;-62
2021/08/28 15:29:27;;;;;;;1.52;1.30;;;;;;;19.67;51.20;99997.88;10445187;28;20128;-62
2021/08/28 15:34:29;;;;;;;2.63;1.55;;;;;;;19.74;51.03;99996.31;10447758;28;20123;-62
2021/08/28 15:39:32;;;;;;;2.03;1.40;;;;;;;19.71;51.49;99988.63;10432583;28;20455;-62
2021/08/28 15:44:34;;;;;;;3.05;1.70;;;;;;;19.75;51.32;99988.19;10446181;28;20079;-62
2021/08/28 15:49:36;;;;;;;2.00;1.35;;;;;;;19.72;51.40;99987.66;10430196;28;20048;-62
2021/08/28 15:54:38;;;;;;;2.80;1.65;;;;;;;19.70;51.31;99994.94;10444330;28;20533;-62
2021/08/28 15:59:40;;;;;;;2.85;1.65;;;;;;;19.79;50.55;100004.66;10441756;28;20045;-62
2021/08/28 16:05:05;;;;;;;4.78;1.70;;;;;;;20.02;50.76;99993.50;10436947;28;20059;-62
2021/08/28 16:10:11;;;;;;;2.85;1.63;;;;;;;19.79;50.64;99986.06;10444315;28;20045;-62
2021/08/28 16:15:15;;;;;;;2.22;1.50;;;;;;;19.71;51.06;99993.94;10444920;28;20856;-62
2021/08/28 16:20:16;;;;;;;2.75;1.60;;;;;;;19.96;51.47;99988.81;10445958;28;20139;-61
2021/08/28 16:25:18;;;;;;;2.97;1.50;;;;;;;20.04;50.35;99982.75;10438251;28;20632;-61
2021/08/28 16:30:20;;;;;;;2.60;1.48;;;;;;;19.90;50.76;99976.13;10447694;28;20053;-61
2021/08/28 16:35:22;;;;;;;2.45;1.55;;;;;;;19.79;51.50;99970.16;10443065;28;20110;-62
2021/08/28 16:40:24;;;;;;;4.47;1.60;;;;;;;19.48;51.71;99982.91;10416622;28;20405;-62
2021/08/28 16:45:26;;;;;;;2.75;1.60;;;;;;;19.23;51.80;99983.56;10414194;28;20045;-62
2021/08/28 16:50:28;;;;;;;2.60;1.60;;;;;;;19.16;52.20;99990.41;10430956;28;20557;-61
2021/08/28 16:55:30;;;;;;;3.83;2.13;;;;;;;19.01;52.66;99990.00;10443016;28;20477;-61
2021/08/28 17:00:32;;;;;;;2.97;1.60;;;;;;;18.95;52.69;99990.59;10444043;28;20477;-61
2021/08/28 17:05:34;;;;;;;4.43;1.70;;;;;;;18.95;53.27;99987.94;10424562;28;20046;-62
2021/08/28 17:10:36;;;;;;;11.32;3.17;;;;;;;18.86;54.04;99986.16;10439879;28;20065;-61
2021/08/28 17:15:38;;;;;;;8.50;2.40;;;;;;;18.79;54.16;99978.94;10431403;28;20075;-62
2021/08/28 17:20:40;;;;;;;3.78;2.50;;;;;;;18.72;53.79;99983.09;10424805;28;20565;-62
2021/08/28 17:25:42;;;;;;;3.42;2.53;;;;;;;18.53;54.25;99978.66;10442142;28;20607;-61
2021/08/28 17:30:44;;;;;;;4.38;2.22;;;;;;;18.44;54.30;99984.81;10441357;28;20390;-61
2021/08/28 17:35:45;;;;;;;5.10;2.33;;;;;;;18.33;55.02;99985.81;10422973;28;20088;-61
2021/08/28 17:40:49;;;;;;;3.65;2.30;;;;;;;18.25;55.21;99977.72;10435161;28;20417;-61
2021/08/28 17:45:51;;;;;;;3.70;2.28;;;;;;;18.15;55.73;99986.59;10439760;28;20536;-61
2021/08/28 17:50:53;;;;;;;3.17;2.55;;;;;;;17.79;56.68;99994.19;10442111;28;20132;-61
2021/08/28 17:55:54;;;;;;;3.63;2.30;;;;;;;17.84;56.64;99999.06;10418803;28;20913;-61
2021/08/28 18:00:56;;;;;;;2.35;1.50;;;;;;;17.76;57.02;100005.06;10439878;28;20552;-62
2021/08/28 18:05:58;;;;;;;3.05;1.60;;;;;;;17.57;57.07;100009.44;10441365;28;20076;-62
2021/08/28 18:11:00;;;;;;;3.60;1.55;;;;;;;17.57;57.62;100012.06;10438095;28;20052;-61
2021/08/28 18:16:02;;;;;;;4.28;1.63;;;;;;;17.57;58.22;100018.22;10410971;28;20140;-62
2021/08/28 18:21:05;;;;;;;2.75;1.65;;;;;;;17.48;57.94;100008.44;10443534;28;20080;-62
2021/08/28 18:26:07;;;;;;;2.00;1.40;;;;;;;17.37;58.36;100021.75;10440995;28;20136;-62
2021/08/28 18:31:09;;;;;;;3.35;1.55;;;;;;;17.31;58.43;100024.88;10443120;28;20151;-62
2021/08/28 18:36:11;;;;;;;4.78;1.63;;;;;;;17.23;58.72;100029.16;10435144;28;20102;-62
2021/08/28 18:41:13;;;;;;;2.53;1.55;;;;;;;17.14;58.88;100032.59;10459029;28;20080;-62
2021/08/28 18:46:16;;;;;;;3.22;1.90;;;;;;;17.21;59.56;100039.88;10426440;28;20080;-63
2021/08/28 18:51:18;;;;;;;6.40;2.10;;;;;;;17.18;59.72;100045.41;10445326;28;20155;-63
2021/08/28 18:56:20;;;;;;;2.50;1.80;;;;;;;17.15;60.13;100050.97;10424939;28;20102;-62
2021/08/28 19:01:22;;;;;;;3.25;1.85;;;;;;;17.05;59.59;100050.06;10448993;28;20140;-63
2021/08/28 19:06:25;;;;;;;4.80;1.90;;;;;;;17.09;60.04;100048.84;10448371;28;20048;-63
2021/08/28 19:11:44;;;;;;;4.40;2.42;;;;;;;16.95;61.14;100051.81;10434525;28;20707;-63
2021/08/28 19:16:47;;;;;;;5.53;2.65;;;;;;;16.99;60.90;100066.44;10444557;28;20532;-63
2021/08/28 19:21:48;;;;;;;5.80;3.03;;;;;;;16.98;61.28;100067.38;10445533;28;20080;-63
2021/08/28 19:26:50;;;;;;;10.20;6.97;;;;;;;16.97;60.86;100063.94;10449871;28;20136;-62
2021/08/28 19:31:54;;;;;;;8.63;5.90;;;;;;;16.92;61.04;100070.53;10448750;28;20580;-63
2021/08/28 19:36:55;;;;;;;10.05;6.63;;;;;;;16.85;61.67;100069.41;10438971;28;20128;-63
2021/08/28 19:41:57;;;;;;;5.65;3.30;;;;;;;16.82;62.27;100067.00;10437023;28;20041;-63
2021/08/28 19:47:00;;;;;;;5.38;2.60;;;;;;;16.85;61.83;100072.03;10447453;28;20627;-63
2021/08/28 19:52:02;;;;;;;4.07;2.40;;;;;;;16.78;62.21;100073.50;10426136;28;20176;-63
2021/08/28 19:57:04;;;;;;;6.53;2.50;;;;;;;16.58;62.34;100069.88;10445899;28;20049;-63
2021/08/28 20:02:07;;;;;;;4.13;2.75;;;;;;;16.53;61.96;100072.03;10448506;28;20060;-63
2021/08/28 20:07:10;;;;;;;4.18;2.47;;;;;;;16.56;62.30;100076.25;10455457;28;20072;-63
2021/08/28 20:12:12;;;;;;;4.28;2.92;;;;;;;16.44;62.13;100077.25;10423337;28;20426;-63
2021/08/28 20:17:14;;;;;;;5.68;3.25;;;;;;;16.42;62.51;100079.16;10448681;28;20509;-63
2021/08/28 20:22:16;;;;;;;4.13;3.00;;;;;;;16.37;62.12;100078.66;10435326;28;20138;-63
2021/08/28 20:27:18;;;;;;;8.43;2.88;;;;;;;16.30;62.36;100075.72;10446509;28;20094;-63
2021/08/28 20:32:20;;;;;;;5.70;3.15;;;;;;;16.34;62.72;100079.78;10447601;28;20486;-63
2021/08/28 20:37:21;;;;;;;5.38;3.30;;;;;;;16.39;62.41;100076.72;10446587;28;20613;-63
2021/08/28 20:42:24;;;;;;;5.00;3.75;;;;;;;16.41;63.15;100069.53;10447018;28;20132;-63
2021/08/28 20:47:25;;;;;;;6.10;3.92;;;;;;;16.32;63.07;100075.56;10422158;28;20133;-63
2021/08/28 20:52:27;;;;;;;5.10;3.90;;;;;;;16.32;63.54;100076.41;10444257;28;20083;-63
2021/08/28 20:57:29;;;;;;;6.65;4.00;;;;;;;16.35;63.61;100073.50;10445346;28;20076;-62
2021/08/28 21:02:31;;;;;;;4.95;4.00;;;;;;;16.35;63.74;100073.50;10445577;28;20132;-62
2021/08/28 21:07:33;;;;;;;5.90;4.03;;;;;;;16.23;63.58;100077.16;10438829;28;20111;-62
2021/08/28 21:12:35;;;;;;;7.82;5.22;;;;;;;16.20;64.30;100083.50;10440597;28;20081;-62
2021/08/28 21:17:38;;;;;;;6.05;4.72;;;;;;;16.24;65.05;100084.94;10440500;28;20128;-62
2021/08/28 21:22:39;;;;;;;6.10;4.53;;;;;;;16.19;65.05;100081.00;10446026;28;20164;-62
2021/08/28 21:27:41;;;;;;;6.07;4.80;;;;;;;16.11;65.27;100078.97;10438968;28;20133;-62
2021/08/28 21:32:44;;;;;;;8.13;4.60;;;;;;;16.11;65.69;100078.13;10445443;28;20103;-62
2021/08/28 21:37:46;;;;;;;7.30;5.57;;;;;;;16.06;65.69;100075.03;10444664;28;20463;-62
2021/08/28 21:42:47;;;;;;;7.10;4.70;;;;;;;16.06;65.94;100070.59;10444692;28;20052;-62
2021/08/28 21:47:49;;;;;;;10.15;5.28;;;;;;;16.03;66.09;100073.50;10437747;28;20045;-63
2021/08/28 21:52:51;;;;;;;5.97;4.65;;;;;;;15.99;66.25;100079.97;10443805;28;20076;-62
2021/08/28 21:57:53;;;;;;;6.40;4.40;;;;;;;15.94;66.59;100076.84;10440131;28;20133;-62
2021/08/28 22:02:55;;;;;;;7.55;3.92;;;;;;;15.86;66.34;100083.69;10438837;28;20051;-62
2021/08/28 22:07:56;;;;;;;6.85;4.60;;;;;;;15.85;66.93;100082.88;10439796;28;20129;-63
2021/08/28 22:12:59;;;;;;;9.98;5.63;;;;;;;15.89;66.85;100081.66;10427511;28;20083;-62
2021/08/28 22:18:00;;;;;;;6.22;5.20;;;;;;;15.88;66.68;100077.31;10447746;28;20080;-62
2021/08/28 22:23:02;;;;;;;5.47;4.45;;;;;;;15.87;66.88;100078.31;10408676;28;20140;-62
2021/08/28 22:28:04;;;;;;;4.57;3.70;;;;;;;15.75;66.98;100081.91;10449410;28;20805;-62
2021/08/28 22:33:06;;;;;;;4.20;3.40;;;;;;;15.72;67.31;100082.13;10445641;28;20516;-62
2021/08/28 22:38:08;;;;;;;6.68;2.95;;;;;;;15.79;67.21;100078.06;10450197;28;20081;-62
2021/08/28 22:43:09;;;;;;;4.43;3.20;;;;;;;15.83;67.21;100074.25;10450521;28;20096;-62
2021/08/28 22:48:11;;;;;;;3.78;2.95;;;;;;;15.94;66.94;100070.72;10451621;28;20080;-62
2021/08/28 22:53:13;;;;;;;5.40;2.10;;;;;;;15.95;66.77;100075.06;10442549;28;20076;-62
2021/08/28 22:58:15;;;;;;;7.95;4.55;;;;;;;15.99;66.95;100064.13;10442484;28;20091;-62
2021/08/28 23:03:16;;;;;;;7.53;3.92;;;;;;;16.02;66.94;100071.78;10450739;28;20092;-62
2021/08/28 23:08:18;;;;;;;6.78;4.13;;;;;;;16.09;66.98;100067.72;10448425;28;20531;-62
2021/08/28 23:13:20;;;;;;;9.20;5.50;;;;;;;16.09;66.91;100061.59;10449423;28;20132;-62